createdAt,value
2018-11-14T00:02:14.486Z,16.85
2018-11-14T00:04:42.901Z,18.48
2018-11-14T00:07:11.071Z,20.10
2018-11-14T00:09:39.418Z,18.20
2018-11-14T00:12:07.608Z,18.73
2018-11-14T00:14:36.015Z,16.70
2018-11-14T00:17:04.366Z,16.60
2018-11-14T00:19:32.722Z,17.30
2018-11-14T00:22:00.890Z,19.30
2018-11-14T00:24:29.378Z,17.85
2018-11-14T00:26:57.595Z,20.15
2018-11-14T00:29:25.848Z,17.20
2018-11-14T00:31:54.223Z,19.12
2018-11-14T00:34:22.456Z,20.30
2018-11-14T00:36:50.763Z,18.50
2018-11-14T00:39:18.974Z,18.25
2018-11-14T00:41:47.248Z,18.07
2018-11-14T00:44:15.417Z,19.57
2018-11-14T00:46:43.597Z,18.85
2018-11-14T00:49:11.794Z,16.70
2018-11-14T00:51:40.055Z,17.15
2018-11-14T00:54:08.244Z,14.90
2018-11-14T00:56:36.483Z,13.62
2018-11-14T00:59:04.918Z,15.93
2018-11-14T01:01:33.206Z,17.32
2018-11-14T01:04:01.437Z,16.40
2018-11-14T01:06:29.801Z,21.57
2018-11-14T01:08:57.956Z,20.77
2018-11-14T01:11:26.140Z,19.65
2018-11-14T01:13:54.484Z,20.32
2018-11-14T01:16:22.853Z,22.40
2018-11-14T01:18:51.041Z,20.80
2018-11-14T01:21:19.183Z,20.75
2018-11-14T01:23:47.536Z,20.30
2018-11-14T01:26:15.788Z,22.82
2018-11-14T01:28:43.964Z,20.52
2018-11-14T01:31:12.210Z,22.65
2018-11-14T01:33:40.403Z,22.82
2018-11-14T01:36:08.582Z,22.82
2018-11-14T01:38:37.882Z,21.12
2018-11-14T01:41:06.290Z,18.77
2018-11-14T01:43:34.432Z,19.67
2018-11-14T01:46:02.745Z,23.55
2018-11-14T01:48:30.978Z,20.30
2018-11-14T01:50:59.216Z,19.27
2018-11-14T01:53:27.550Z,18.07
2018-11-14T01:55:55.710Z,17.25
2018-11-14T01:58:23.928Z,16.85
2018-11-14T02:00:52.161Z,17.57
2018-11-14T02:03:20.405Z,15.48
2018-11-14T02:05:48.603Z,17.17
2018-11-14T02:08:16.865Z,16.93
2018-11-14T02:10:45.063Z,20.45
2018-11-14T02:13:13.308Z,20.92
2018-11-14T02:15:41.504Z,21.10
2018-11-14T02:18:09.737Z,26.52
2018-11-14T02:20:37.893Z,24.67
2018-11-14T02:23:06.089Z,20.12
2018-11-14T02:25:34.268Z,24.27
2018-11-14T02:28:02.441Z,22.17
2018-11-14T02:30:30.808Z,21.25
2018-11-14T02:32:58.998Z,21.95
2018-11-14T02:35:27.240Z,21.15
2018-11-14T02:37:55.770Z,21.05
2018-11-14T02:40:23.943Z,21.33
2018-11-14T02:42:52.148Z,26.48
2018-11-14T02:45:20.324Z,27.83
2018-11-14T02:47:48.542Z,22.45
2018-11-14T02:50:17.631Z,21.25
2018-11-14T02:52:45.868Z,21.17
2018-11-14T02:55:15.204Z,23.00
2018-11-14T02:57:43.911Z,24.75
2018-11-14T03:00:20.922Z,31.17
2018-11-14T03:02:49.204Z,24.37
2018-11-14T03:05:17.468Z,23.90
2018-11-14T03:07:45.671Z,27.07
2018-11-14T03:10:16.221Z,27.30
2018-11-14T03:12:44.457Z,31.68
2018-11-14T03:15:14.912Z,34.57
2018-11-14T03:17:43.163Z,36.17
2018-11-14T03:20:13.625Z,29.07
2018-11-14T03:22:41.877Z,24.32
2018-11-14T03:25:11.420Z,22.47
2018-11-14T03:27:39.675Z,21.05
2018-11-14T03:30:11.245Z,20.17
2018-11-14T03:32:40.108Z,21.75
2018-11-14T03:35:09.061Z,19.77
2018-11-14T03:37:37.623Z,31.82
2018-11-14T03:40:06.890Z,32.33
2018-11-14T03:42:35.119Z,33.10
2018-11-14T03:45:03.396Z,37.23
2018-11-14T03:47:31.633Z,31.12
2018-11-14T03:49:59.845Z,33.35
2018-11-14T03:52:28.087Z,33.50
2018-11-14T03:54:56.427Z,31.97
2018-11-14T03:57:24.710Z,126.15
2018-11-14T03:59:52.973Z,69.77
2018-11-14T04:02:21.292Z,62.40
2018-11-14T04:04:49.513Z,162.37
2018-11-14T04:07:17.740Z,361.60
2018-11-14T04:09:49.580Z,168.25
2018-11-14T04:12:17.821Z,158.30
2018-11-14T04:14:46.065Z,171.25
2018-11-14T04:17:14.470Z,212.45
2018-11-14T04:19:42.788Z,269.25
2018-11-14T04:22:11.158Z,184.18
2018-11-14T04:24:39.376Z,390.75
2018-11-14T04:27:07.720Z,217.00
2018-11-14T04:29:35.889Z,283.35
2018-11-14T04:32:04.119Z,247.40
2018-11-14T04:34:32.327Z,336.68
2018-11-14T04:37:00.695Z,231.50
2018-11-14T04:39:28.964Z,286.55
2018-11-14T04:41:57.148Z,162.97
2018-11-14T04:44:25.404Z,148.02
2018-11-14T04:46:53.617Z,260.38
2018-11-14T04:49:21.943Z,266.55
2018-11-14T04:51:51.179Z,214.60
2018-11-14T04:54:19.619Z,88.43
2018-11-14T04:56:47.893Z,86.12
2018-11-14T04:59:16.159Z,127.57
2018-11-14T05:01:44.356Z,90.77
2018-11-14T05:04:22.184Z,110.25
2018-11-14T05:06:50.387Z,75.90
2018-11-14T05:09:18.628Z,57.93
2018-11-14T05:11:47.161Z,177.55
2018-11-14T05:14:15.399Z,58.00
2018-11-14T05:16:43.821Z,71.17
2018-11-14T05:19:12.200Z,98.33
2018-11-14T05:21:40.477Z,120.15
2018-11-14T05:24:08.753Z,163.37
2018-11-14T05:26:36.942Z,52.98
2018-11-14T05:29:05.252Z,75.45
2018-11-14T05:31:33.541Z,57.77
2018-11-14T05:34:01.736Z,46.92
2018-11-14T05:36:29.988Z,49.63
2018-11-14T05:38:58.325Z,42.85
2018-11-14T05:41:26.518Z,89.72
2018-11-14T05:43:55.256Z,53.65
2018-11-14T05:46:23.777Z,49.00
2018-11-14T05:48:52.016Z,50.98
2018-11-14T05:51:20.333Z,78.37
2018-11-14T05:53:48.615Z,44.80
2018-11-14T05:56:16.864Z,73.28
2018-11-14T05:58:45.043Z,54.67
2018-11-14T06:01:13.230Z,44.73
2018-11-14T06:03:41.456Z,34.45
2018-11-14T06:06:09.800Z,87.25
2018-11-14T06:08:38.112Z,87.37
2018-11-14T06:11:06.374Z,123.25
2018-11-14T06:13:34.600Z,35.55
2018-11-14T06:16:02.885Z,98.05
2018-11-14T06:18:31.227Z,173.38
2018-11-14T06:20:59.399Z,93.58
2018-11-14T06:23:27.653Z,71.55
2018-11-14T06:25:55.895Z,165.12
2018-11-14T06:28:24.070Z,200.25
2018-11-14T06:30:52.232Z,176.78
2018-11-14T06:33:20.597Z,160.67
2018-11-14T06:35:48.820Z,111.60
2018-11-14T06:38:17.052Z,122.85
2018-11-14T06:40:45.289Z,115.42
2018-11-14T06:43:15.034Z,211.80
2018-11-14T06:45:43.248Z,92.50
2018-11-14T06:48:11.459Z,69.20
2018-11-14T06:50:39.814Z,74.90
2018-11-14T06:53:08.052Z,62.13
2018-11-14T06:55:36.489Z,72.37
2018-11-14T06:58:04.713Z,191.00
2018-11-14T07:00:34.322Z,199.00
2018-11-14T07:03:03.892Z,171.20
2018-11-14T07:05:32.183Z,151.87
2018-11-14T07:08:00.280Z,125.97
2018-11-14T07:10:30.023Z,228.77
2018-11-14T07:13:03.554Z,165.82
2018-11-14T07:15:31.845Z,199.07
2018-11-14T07:18:00.056Z,250.90
2018-11-14T07:20:30.561Z,143.70
2018-11-14T07:22:58.725Z,148.62
2018-11-14T07:25:26.925Z,187.07
2018-11-14T07:27:55.318Z,244.22
2018-11-14T07:30:24.740Z,220.37
2018-11-14T07:32:55.427Z,131.95
2018-11-14T07:35:23.653Z,231.57
2018-11-14T07:38:32.653Z,147.53
2018-11-14T07:41:01.872Z,134.75
2018-11-14T07:43:30.204Z,245.40
2018-11-14T07:45:58.543Z,355.07
2018-11-14T07:48:26.770Z,208.47
2018-11-14T07:50:55.017Z,230.95
2018-11-14T07:53:23.253Z,210.23
2018-11-14T07:55:51.411Z,314.82
2018-11-14T07:58:19.912Z,248.07
2018-11-14T08:00:48.099Z,163.18
2018-11-14T08:03:16.376Z,213.40
2018-11-14T08:05:44.547Z,192.80
2018-11-14T08:08:12.901Z,140.25
2018-11-14T08:10:41.212Z,172.25
2018-11-14T08:15:50.197Z,268.23
2018-11-14T08:18:18.463Z,240.52
2018-11-14T08:20:46.721Z,146.47
2018-11-14T08:23:15.073Z,126.30
2018-11-14T08:25:43.257Z,149.75
2018-11-14T08:28:11.516Z,205.32
2018-11-14T08:30:39.701Z,149.55
2018-11-14T08:33:08.104Z,157.60
2018-11-14T08:35:36.357Z,233.60
2018-11-14T08:38:04.555Z,223.97
2018-11-14T08:40:32.757Z,238.20
2018-11-14T08:43:01.044Z,224.47
2018-11-14T08:45:29.328Z,227.03
2018-11-14T08:47:57.509Z,175.03
2018-11-14T08:50:25.896Z,180.95
2018-11-14T08:52:54.081Z,200.60
2018-11-14T08:55:22.253Z,311.25
2018-11-14T08:57:50.461Z,212.65
2018-11-14T09:00:20.291Z,174.68
2018-11-14T09:02:49.096Z,211.05
2018-11-14T09:05:17.476Z,143.90
2018-11-14T09:07:45.927Z,245.48
2018-11-14T09:10:16.491Z,191.82
2018-11-14T09:12:45.088Z,179.80
2018-11-14T09:15:14.641Z,177.07
2018-11-14T09:17:43.031Z,173.05
2018-11-14T09:20:13.337Z,183.12
2018-11-14T09:22:42.017Z,223.93
2018-11-14T09:25:13.463Z,186.82
2018-11-14T09:27:42.780Z,207.65
2018-11-14T09:30:13.433Z,106.83
2018-11-14T09:32:41.644Z,289.35
2018-11-14T09:35:11.503Z,174.32
2018-11-14T09:37:40.061Z,253.83
2018-11-14T09:40:09.609Z,260.25
2018-11-14T09:42:38.465Z,207.95
2018-11-14T09:45:08.286Z,322.33
2018-11-14T09:47:36.564Z,134.05
2018-11-14T09:50:06.113Z,226.03
2018-11-14T09:52:34.291Z,117.42
2018-11-14T09:55:02.592Z,142.95
2018-11-14T09:57:30.842Z,73.85
2018-11-14T09:59:59.051Z,81.63
2018-11-14T10:02:27.298Z,126.90
2018-11-14T10:04:55.519Z,120.80
2018-11-14T10:07:23.768Z,144.80
2018-11-14T10:09:51.962Z,74.47
2018-11-14T10:12:20.146Z,70.15
2018-11-14T10:14:48.357Z,94.90
2018-11-14T10:17:16.562Z,64.37
2018-11-14T10:19:44.763Z,117.15
2018-11-14T10:22:12.976Z,100.97
2018-11-14T10:24:41.176Z,97.50
2018-11-14T10:27:09.564Z,116.95
2018-11-14T10:29:37.760Z,131.55
2018-11-14T10:32:05.920Z,97.42
2018-11-14T10:34:34.120Z,85.47
2018-11-14T10:37:02.268Z,82.92
2018-11-14T10:39:30.512Z,61.48
2018-11-14T10:41:58.653Z,93.45
2018-11-14T10:44:26.820Z,113.97
2018-11-14T10:46:55.001Z,58.20
2018-11-14T10:49:23.369Z,56.18
2018-11-14T10:51:51.536Z,59.88
2018-11-14T10:54:19.684Z,80.53
2018-11-14T10:56:47.847Z,70.07
2018-11-14T10:59:16.052Z,56.98
2018-11-14T11:02:47.365Z,65.45
2018-11-14T11:05:21.097Z,51.68
2018-11-14T11:07:54.750Z,43.50
2018-11-14T11:10:28.627Z,81.47
2018-11-14T11:13:05.041Z,75.80
2018-11-14T11:15:39.000Z,58.83
2018-11-14T11:18:09.476Z,87.25
2018-11-14T11:20:37.676Z,58.48
2018-11-14T11:23:05.949Z,68.33
2018-11-14T11:25:34.103Z,71.80
2018-11-14T11:28:02.337Z,97.67
2018-11-14T11:30:30.502Z,72.53
2018-11-14T11:32:58.669Z,111.03
2018-11-14T11:35:27.005Z,80.80
2018-11-14T11:37:55.179Z,90.03
2018-11-14T11:40:23.334Z,87.62
2018-11-14T11:45:26.222Z,121.57
2018-11-14T11:47:54.715Z,110.28
2018-11-14T11:50:23.839Z,126.97
2018-11-14T11:52:52.168Z,143.95
2018-11-14T11:55:20.349Z,124.40
2018-11-14T11:57:48.531Z,173.72
2018-11-14T12:00:16.800Z,139.15
2018-11-14T12:02:44.938Z,142.67
2018-11-14T12:05:14.184Z,134.15
2018-11-14T12:07:43.014Z,116.57
2018-11-14T12:10:12.907Z,122.60
2018-11-14T12:12:41.629Z,115.20
2018-11-14T12:15:11.092Z,146.70
2018-11-14T12:17:39.761Z,102.30
2018-11-14T12:20:09.085Z,122.50
2018-11-14T12:22:38.211Z,112.45
2018-11-14T12:25:07.968Z,96.82
2018-11-14T12:27:36.258Z,91.55
2018-11-14T12:30:07.503Z,94.97
2018-11-14T12:32:35.558Z,78.93
2018-11-14T12:35:04.050Z,80.03
2018-11-14T12:37:32.257Z,81.97
2018-11-14T12:40:00.487Z,77.35
2018-11-14T12:42:28.769Z,81.45
2018-11-14T12:44:57.048Z,59.90
2018-11-14T12:47:25.238Z,70.85
2018-11-14T12:49:53.546Z,75.95
2018-11-14T12:52:21.737Z,74.72
2018-11-14T12:54:50.106Z,86.87
2018-11-14T12:57:18.315Z,78.12
2018-11-14T12:59:46.562Z,79.45
2018-11-14T13:02:14.747Z,83.45
2018-11-14T13:04:43.212Z,88.87
2018-11-14T13:07:11.486Z,87.12
2018-11-14T13:09:39.696Z,94.65
2018-11-14T13:12:07.936Z,101.95
2018-11-14T13:14:36.120Z,101.47
2018-11-14T13:17:04.393Z,106.32
2018-11-14T13:19:32.659Z,113.67
2018-11-14T13:22:12.059Z,108.12
2018-11-14T13:24:40.344Z,100.20
2018-11-14T13:27:09.218Z,99.10
2018-11-14T13:29:37.434Z,91.75
2018-11-14T13:32:05.734Z,91.20
2018-11-14T13:34:33.925Z,96.47
2018-11-14T13:37:02.178Z,97.27
2018-11-14T13:39:30.433Z,94.15
2018-11-14T13:41:58.672Z,100.00
2018-11-14T13:44:26.841Z,99.75
2018-11-14T13:46:55.042Z,102.10
2018-11-14T13:49:23.698Z,101.35
2018-11-14T13:51:51.770Z,103.30
2018-11-14T13:54:19.930Z,95.80
2018-11-14T13:56:48.940Z,109.80
2018-11-14T13:59:17.135Z,102.07
2018-11-14T14:01:45.424Z,98.90
2018-11-14T14:04:13.753Z,95.45
2018-11-14T14:06:41.982Z,97.17
2018-11-14T14:09:11.995Z,96.30
2018-11-14T14:11:40.330Z,93.80
2018-11-14T14:14:12.541Z,83.58
2018-11-14T14:16:42.075Z,82.82
2018-11-14T14:19:10.432Z,86.20
2018-11-14T14:21:38.804Z,89.47
2018-11-14T14:24:07.301Z,92.53
2018-11-14T14:26:36.400Z,89.77
2018-11-14T14:29:04.774Z,86.60
2018-11-14T14:31:33.195Z,86.78
2018-11-14T14:34:01.534Z,84.67
2018-11-14T14:36:29.764Z,83.30
2018-11-14T14:38:57.959Z,82.25
2018-11-14T14:41:26.190Z,93.97
2018-11-14T14:43:54.487Z,99.80
2018-11-14T14:46:28.436Z,88.10
2018-11-14T14:48:56.886Z,94.35
2018-11-14T14:51:27.796Z,105.15
2018-11-14T14:53:57.387Z,108.22
2018-11-14T14:56:30.152Z,106.23
2018-11-14T14:58:59.456Z,99.13
2018-11-14T15:01:30.019Z,101.10
2018-11-14T15:03:58.357Z,103.30
2018-11-14T15:06:26.527Z,101.12
2018-11-14T15:08:56.788Z,101.50
2018-11-14T15:11:25.572Z,98.42
2018-11-14T15:13:55.076Z,109.13
2018-11-14T15:16:23.264Z,111.25
2018-11-14T15:18:51.469Z,99.00
2018-11-14T15:21:19.682Z,105.35
2018-11-14T15:23:47.923Z,109.07
2018-11-14T15:26:16.197Z,122.60
2018-11-14T15:28:44.487Z,121.92
2018-11-14T15:31:12.716Z,133.30
2018-11-14T15:33:40.919Z,110.97
2018-11-14T15:36:09.330Z,118.00
2018-11-14T15:38:37.552Z,106.67
2018-11-14T15:41:05.954Z,120.72
2018-11-14T15:43:34.140Z,125.33
2018-11-14T15:46:02.377Z,127.02
2018-11-14T15:48:30.893Z,124.05
2018-11-14T15:51:01.716Z,123.85
2018-11-14T15:53:29.969Z,133.50
2018-11-14T15:55:58.162Z,141.90
2018-11-14T15:58:26.415Z,137.50
2018-11-14T16:00:54.649Z,179.60
2018-11-14T16:03:22.838Z,137.13
2018-11-14T16:05:51.058Z,187.95
2018-11-14T16:08:19.282Z,159.05
2018-11-14T16:10:47.479Z,146.13
2018-11-14T16:15:54.863Z,200.25
2018-11-14T16:18:23.066Z,122.72
2018-11-14T16:20:51.240Z,121.57
2018-11-14T16:23:19.484Z,112.47
2018-11-14T16:25:47.628Z,125.47
2018-11-14T16:28:15.836Z,168.78
2018-11-14T16:30:44.033Z,113.40
2018-11-14T16:33:12.174Z,123.45
2018-11-14T16:35:40.420Z,129.50
2018-11-14T16:38:08.604Z,130.55
2018-11-14T16:40:36.773Z,104.80
2018-11-14T16:43:06.472Z,101.12
2018-11-14T16:45:34.644Z,115.00
2018-11-14T16:48:02.863Z,95.03
2018-11-14T16:50:31.068Z,80.32
2018-11-14T16:52:59.345Z,73.22
2018-11-14T16:55:27.605Z,68.20
2018-11-14T16:57:56.484Z,70.97
2018-11-14T17:00:28.794Z,71.55
2018-11-14T17:02:56.975Z,69.23
2018-11-14T17:05:26.405Z,63.00
2018-11-14T17:07:54.680Z,53.50
2018-11-14T17:10:23.303Z,41.20
2018-11-14T17:12:53.005Z,38.17
2018-11-14T17:15:22.607Z,38.02
2018-11-14T17:17:50.804Z,40.10
2018-11-14T17:20:19.780Z,37.17
2018-11-14T17:22:48.565Z,40.03
2018-11-14T17:25:17.446Z,40.40
2018-11-14T17:27:46.108Z,36.40
2018-11-14T17:30:15.867Z,35.80
2018-11-14T17:32:44.191Z,37.83
2018-11-14T17:35:13.232Z,37.42
2018-11-14T17:37:42.350Z,37.07
2018-11-14T17:40:16.881Z,35.38
2018-11-14T17:42:45.775Z,38.83
2018-11-14T17:45:17.539Z,34.15
2018-11-14T17:47:46.201Z,37.70
2018-11-14T17:50:18.435Z,38.33
2018-11-14T17:52:47.499Z,38.95
2018-11-14T17:55:16.373Z,39.13
2018-11-14T17:57:44.607Z,38.38
2018-11-14T18:00:15.375Z,40.65
2018-11-14T18:02:44.609Z,38.33
2018-11-14T18:05:14.269Z,41.50
2018-11-14T18:07:43.970Z,42.70
2018-11-14T18:10:14.414Z,41.42
2018-11-14T18:12:43.539Z,41.58
2018-11-14T18:15:12.275Z,41.63
2018-11-14T18:17:41.057Z,40.63
2018-11-14T18:20:11.815Z,41.28
2018-11-14T18:22:40.576Z,42.20
2018-11-14T18:25:08.998Z,40.80
2018-11-14T18:27:37.153Z,41.25
2018-11-14T18:30:07.864Z,44.75
2018-11-14T18:32:36.040Z,40.45
2018-11-14T18:35:04.814Z,45.40
2018-11-14T18:37:33.055Z,44.25
2018-11-14T18:40:01.277Z,42.20
2018-11-14T18:42:29.452Z,46.92
2018-11-14T18:44:57.583Z,45.67
2018-11-14T18:47:25.855Z,46.08
2018-11-14T18:49:54.090Z,43.97
2018-11-14T18:52:22.333Z,45.05
2018-11-14T18:54:50.556Z,45.78
2018-11-14T18:57:18.756Z,45.23
2018-11-14T18:59:46.923Z,46.60
2018-11-14T19:02:15.074Z,46.50
2018-11-14T19:04:43.471Z,44.83
2018-11-14T19:07:11.646Z,44.30
2018-11-14T19:09:40.129Z,42.40
2018-11-14T19:12:08.567Z,44.18
2018-11-14T19:14:36.713Z,45.35
2018-11-14T19:17:05.078Z,47.23
2018-11-14T19:19:33.460Z,47.23
2018-11-14T19:22:02.192Z,45.92
2018-11-14T19:24:30.566Z,44.27
2018-11-14T19:26:59.068Z,44.13
2018-11-14T19:29:27.396Z,43.98
2018-11-14T19:31:55.921Z,45.25
2018-11-14T19:34:24.041Z,47.50
2018-11-14T19:36:52.466Z,48.00
2018-11-14T19:39:20.884Z,42.45
2018-11-14T19:41:50.223Z,45.52
2018-11-14T19:44:18.451Z,43.60
2018-11-14T19:46:46.769Z,46.50
2018-11-14T19:49:15.258Z,43.70
2018-11-14T19:51:43.631Z,44.95
2018-11-14T19:54:11.977Z,45.75
2018-11-14T19:56:40.204Z,45.05
2018-11-14T19:59:08.520Z,44.15
2018-11-14T20:01:36.709Z,42.20
2018-11-14T20:04:04.978Z,44.80
2018-11-14T20:06:33.272Z,47.43
2018-11-14T20:09:01.556Z,47.50
2018-11-14T20:11:29.876Z,44.65
2018-11-14T20:13:58.167Z,40.70
2018-11-14T20:16:26.574Z,45.25
2018-11-14T20:18:54.748Z,44.13
2018-11-14T20:21:22.932Z,42.23
2018-11-14T20:23:51.151Z,40.30
2018-11-14T20:26:19.728Z,40.05
2018-11-14T20:28:47.914Z,41.55
2018-11-14T20:31:16.395Z,41.30
2018-11-14T20:33:44.679Z,38.57
2018-11-14T20:36:12.928Z,36.98
2018-11-14T20:38:41.145Z,38.75
2018-11-14T20:41:09.305Z,39.13
2018-11-14T20:43:37.645Z,38.40
2018-11-14T20:46:06.233Z,40.15
2018-11-14T20:48:34.478Z,37.33
2018-11-14T20:51:02.827Z,40.12
2018-11-14T20:53:31.316Z,40.17
2018-11-14T20:56:00.391Z,38.45
2018-11-14T20:58:28.809Z,39.85
2018-11-14T21:00:57.152Z,39.33
2018-11-14T21:03:25.521Z,39.35
2018-11-14T21:05:53.853Z,37.70
2018-11-14T21:08:22.115Z,37.83
2018-11-14T21:10:50.423Z,42.23
2018-11-14T21:13:18.707Z,41.05
2018-11-14T21:15:46.873Z,41.92
2018-11-14T21:18:15.095Z,41.20
2018-11-14T21:20:43.314Z,38.67
2018-11-14T21:23:11.673Z,39.75
2018-11-14T21:25:40.008Z,39.27
2018-11-14T21:28:08.214Z,40.45
2018-11-14T21:30:36.411Z,38.73
2018-11-14T21:33:04.982Z,41.28
2018-11-14T21:35:35.527Z,40.92
2018-11-14T21:38:05.212Z,40.03
2018-11-14T21:40:33.448Z,40.75
2018-11-14T21:43:01.680Z,40.15
2018-11-14T21:45:30.391Z,42.00
2018-11-14T21:48:04.013Z,41.60
2018-11-14T21:50:32.659Z,41.42
2018-11-14T21:53:00.875Z,42.88
2018-11-14T21:55:29.239Z,39.78
2018-11-14T21:57:57.383Z,40.50
2018-11-14T22:00:32.864Z,38.78
2018-11-14T22:03:01.172Z,40.08
2018-11-14T22:05:29.451Z,41.70
2018-11-14T22:07:57.632Z,38.40
2018-11-14T22:10:26.655Z,40.30
2018-11-14T22:12:54.896Z,39.20
2018-11-14T22:15:24.197Z,38.73
2018-11-14T22:17:52.689Z,37.20
2018-11-14T22:20:22.285Z,39.95
2018-11-14T22:22:50.614Z,38.80
2018-11-14T22:25:20.098Z,37.28
2018-11-14T22:27:48.429Z,38.80
2018-11-14T22:30:19.038Z,38.60
2018-11-14T22:32:47.388Z,37.58
2018-11-14T22:35:16.725Z,34.70
2018-11-14T22:37:44.897Z,36.95
2018-11-14T22:40:14.664Z,38.08
2018-11-14T22:42:43.291Z,35.05
2018-11-14T22:45:13.777Z,37.20
2018-11-14T22:47:42.358Z,34.80
2018-11-14T22:50:11.934Z,34.15
2018-11-14T22:52:41.081Z,34.95
2018-11-14T22:55:10.383Z,35.83
2018-11-14T22:57:38.603Z,35.15
2018-11-14T23:00:14.133Z,36.30
2018-11-14T23:02:42.470Z,35.23
2018-11-14T23:05:10.691Z,34.30
2018-11-14T23:07:38.900Z,33.85
2018-11-14T23:10:07.141Z,32.78
2018-11-14T23:12:35.423Z,33.00
2018-11-14T23:15:03.604Z,32.03
2018-11-14T23:17:31.974Z,33.35
2018-11-14T23:20:00.237Z,34.65
2018-11-14T23:22:28.430Z,33.37
2018-11-14T23:24:56.618Z,32.13
2018-11-14T23:27:24.893Z,32.15
2018-11-14T23:29:53.283Z,33.35
2018-11-14T23:32:21.510Z,31.93
2018-11-14T23:34:55.139Z,32.08
2018-11-14T23:37:23.407Z,31.10
2018-11-14T23:39:51.600Z,31.45
2018-11-14T23:42:19.764Z,32.40
2018-11-14T23:44:47.928Z,31.27
2018-11-14T23:47:16.112Z,31.60
2018-11-14T23:49:44.288Z,28.62
2018-11-14T23:52:12.636Z,29.67
2018-11-14T23:54:40.808Z,29.18
2018-11-14T23:57:09.005Z,31.10
2018-11-14T23:59:37.196Z,29.65
